sensor_id;sensor_type;location;lat;lon;timestamp;P1;P2;P0
62846;PMS5003;49477;35.676;139.586;2023-05-29T00:00:18;12;11;
62846;PMS5003;49477;35.676;139.586;2023-05-29T00:02:48;19;15;
62846;PMS5003;49477;35.676;139.586;2023-05-29T00:05:18;13;12;
62846;PMS5003;49477;35.676;139.586;2023-05-29T00:07:47;15;12;
62846;PMS5003;49477;35.676;139.586;2023-05-29T00:10:16;11;11;
62846;PMS5003;49477;35.676;139.586;2023-05-29T00:12:45;15;14;
62846;PMS5003;49477;35.676;139.586;2023-05-29T00:15:15;11;11;
62846;PMS5003;49477;35.676;139.586;2023-05-29T00:17:44;17;15;
62846;PMS5003;49477;35.676;139.586;2023-05-29T00:20:13;13;13;
62846;PMS5003;49477;35.676;139.586;2023-05-29T00:22:43;14;12;
62846;PMS5003;49477;35.676;139.586;2023-05-29T00:25:12;13;11;
62846;PMS5003;49477;35.676;139.586;2023-05-29T00:27:41;13;11;
62846;PMS5003;49477;35.676;139.586;2023-05-29T00:30:11;12;9;
62846;PMS5003;49477;35.676;139.586;2023-05-29T00:32:40;12;9;
62846;PMS5003;49477;35.676;139.586;2023-05-29T00:35:09;12;11;
62846;PMS5003;49477;35.676;139.586;2023-05-29T00:37:39;13;13;
62846;PMS5003;49477;35.676;139.586;2023-05-29T00:40:09;16;15;
62846;PMS5003;49477;35.676;139.586;2023-05-29T00:42:39;15;14;
62846;PMS5003;49477;35.676;139.586;2023-05-29T00:45:09;15;15;
62846;PMS5003;49477;35.676;139.586;2023-05-29T00:47:39;15;13;
62846;PMS5003;49477;35.676;139.586;2023-05-29T00:50:09;11;11;
62846;PMS5003;49477;35.676;139.586;2023-05-29T00:52:40;17;12;
62846;PMS5003;49477;35.676;139.586;2023-05-29T00:55:10;12;11;
62846;PMS5003;49477;35.676;139.586;2023-05-29T00:57:40;11;11;
62846;PMS5003;49477;35.676;139.586;2023-05-29T01:00:10;14;14;
62846;PMS5003;49477;35.676;139.586;2023-05-29T01:02:41;13;13;
62846;PMS5003;49477;35.676;139.586;2023-05-29T01:05:11;15;12;
62846;PMS5003;49477;35.676;139.586;2023-05-29T01:07:40;14;13;
62846;PMS5003;49477;35.676;139.586;2023-05-29T01:10:10;13;12;
62846;PMS5003;49477;35.676;139.586;2023-05-29T01:12:42;15;14;
62846;PMS5003;49477;35.676;139.586;2023-05-29T01:15:21;13;12;
62846;PMS5003;49477;35.676;139.586;2023-05-29T01:18:08;16;14;
62846;PMS5003;49477;35.676;139.586;2023-05-29T01:20:55;12;12;
62846;PMS5003;49477;35.676;139.586;2023-05-29T01:23:40;12;12;
62846;PMS5003;49477;35.676;139.586;2023-05-29T01:26:22;14;12;
62846;PMS5003;49477;35.676;139.586;2023-05-29T01:29:14;12;12;
62846;PMS5003;49477;35.676;139.586;2023-05-29T01:31:46;12;11;
62846;PMS5003;49477;35.676;139.586;2023-05-29T01:34:17;13;13;
62846;PMS5003;49477;35.676;139.586;2023-05-29T01:36:46;15;12;
62846;PMS5003;49477;35.676;139.586;2023-05-29T01:39:16;15;12;
62846;PMS5003;49477;35.676;139.586;2023-05-29T01:41:45;13;13;
62846;PMS5003;49477;35.676;139.586;2023-05-29T01:44:15;9;9;
62846;PMS5003;49477;35.676;139.586;2023-05-29T01:46:47;12;10;
62846;PMS5003;49477;35.676;139.586;2023-05-29T01:49:17;11;11;
62846;PMS5003;49477;35.676;139.586;2023-05-29T01:51:47;11;11;
62846;PMS5003;49477;35.676;139.586;2023-05-29T01:54:16;12;12;
62846;PMS5003;49477;35.676;139.586;2023-05-29T01:56:45;10;10;
62846;PMS5003;49477;35.676;139.586;2023-05-29T01:59:15;15;11;
62846;PMS5003;49477;35.676;139.586;2023-05-29T02:01:45;12;9;
62846;PMS5003;49477;35.676;139.586;2023-05-29T02:04:15;10;10;
62846;PMS5003;49477;35.676;139.586;2023-05-29T02:06:45;14;12;
62846;PMS5003;49477;35.676;139.586;2023-05-29T02:09:15;11;11;
62846;PMS5003;49477;35.676;139.586;2023-05-29T02:11:44;12;11;
62846;PMS5003;49477;35.676;139.586;2023-05-29T02:14:14;12;11;
62846;PMS5003;49477;35.676;139.586;2023-05-29T02:16:43;12;11;
62846;PMS5003;49477;35.676;139.586;2023-05-29T02:19:12;12;12;
62846;PMS5003;49477;35.676;139.586;2023-05-29T02:21:42;16;11;
62846;PMS5003;49477;35.676;139.586;2023-05-29T02:24:11;11;11;
62846;PMS5003;49477;35.676;139.586;2023-05-29T02:26:40;13;12;
62846;PMS5003;49477;35.676;139.586;2023-05-29T02:29:10;11;11;
62846;PMS5003;49477;35.676;139.586;2023-05-29T02:31:39;18;14;
62846;PMS5003;49477;35.676;139.586;2023-05-29T02:34:08;16;12;
62846;PMS5003;49477;35.676;139.586;2023-05-29T02:36:37;13;11;
62846;PMS5003;49477;35.676;139.586;2023-05-29T02:39:06;12;12;
62846;PMS5003;49477;35.676;139.586;2023-05-29T02:41:35;17;15;
62846;PMS5003;49477;35.676;139.586;2023-05-29T02:44:05;15;12;
62846;PMS5003;49477;35.676;139.586;2023-05-29T02:46:34;16;15;
62846;PMS5003;49477;35.676;139.586;2023-05-29T02:49:04;11;10;
62846;PMS5003;49477;35.676;139.586;2023-05-29T02:51:33;13;13;
62846;PMS5003;49477;35.676;139.586;2023-05-29T02:54:02;13;13;
62846;PMS5003;49477;35.676;139.586;2023-05-29T02:56:32;15;14;
62846;PMS5003;49477;35.676;139.586;2023-05-29T02:59:02;15;13;
62846;PMS5003;49477;35.676;139.586;2023-05-29T03:01:31;12;12;
62846;PMS5003;49477;35.676;139.586;2023-05-29T03:04:00;12;12;
62846;PMS5003;49477;35.676;139.586;2023-05-29T03:06:30;11;11;
62846;PMS5003;49477;35.676;139.586;2023-05-29T03:08:59;15;14;
62846;PMS5003;49477;35.676;139.586;2023-05-29T03:11:28;12;12;
62846;PMS5003;49477;35.676;139.586;2023-05-29T03:13:58;11;11;
62846;PMS5003;49477;35.676;139.586;2023-05-29T03:16:27;14;12;
62846;PMS5003;49477;35.676;139.586;2023-05-29T03:18:57;16;14;
62846;PMS5003;49477;35.676;139.586;2023-05-29T03:21:26;13;11;
62846;PMS5003;49477;35.676;139.586;2023-05-29T03:23:55;14;14;
62846;PMS5003;49477;35.676;139.586;2023-05-29T03:26:24;18;16;
62846;PMS5003;49477;35.676;139.586;2023-05-29T03:28:53;14;14;
62846;PMS5003;49477;35.676;139.586;2023-05-29T03:31:23;17;16;
62846;PMS5003;49477;35.676;139.586;2023-05-29T03:33:53;17;14;
62846;PMS5003;49477;35.676;139.586;2023-05-29T03:36:22;18;14;
62846;PMS5003;49477;35.676;139.586;2023-05-29T03:38:51;17;15;
62846;PMS5003;49477;35.676;139.586;2023-05-29T03:41:21;12;12;
62846;PMS5003;49477;35.676;139.586;2023-05-29T03:43:50;17;14;
62846;PMS5003;49477;35.676;139.586;2023-05-29T03:46:20;16;13;
62846;PMS5003;49477;35.676;139.586;2023-05-29T03:48:49;17;14;
62846;PMS5003;49477;35.676;139.586;2023-05-29T03:51:18;18;16;
62846;PMS5003;49477;35.676;139.586;2023-05-29T03:53:48;20;14;
62846;PMS5003;49477;35.676;139.586;2023-05-29T03:56:17;18;16;
62846;PMS5003;49477;35.676;139.586;2023-05-29T03:58:47;15;14;
62846;PMS5003;49477;35.676;139.586;2023-05-29T04:01:15;11;11;
62846;PMS5003;49477;35.676;139.586;2023-05-29T04:03:45;14;13;
62846;PMS5003;49477;35.676;139.586;2023-05-29T04:06:14;13;12;
62846;PMS5003;49477;35.676;139.586;2023-05-29T04:08:43;14;14;
62846;PMS5003;49477;35.676;139.586;2023-05-29T04:11:13;18;17;
62846;PMS5003;49477;35.676;139.586;2023-05-29T04:13:42;16;14;
62846;PMS5003;49477;35.676;139.586;2023-05-29T04:16:11;15;15;
62846;PMS5003;49477;35.676;139.586;2023-05-29T04:18:41;12;12;
62846;PMS5003;49477;35.676;139.586;2023-05-29T04:21:11;17;15;
62846;PMS5003;49477;35.676;139.586;2023-05-29T04:23:40;17;13;
62846;PMS5003;49477;35.676;139.586;2023-05-29T04:26:09;17;14;
62846;PMS5003;49477;35.676;139.586;2023-05-29T04:28:39;15;14;
62846;PMS5003;49477;35.676;139.586;2023-05-29T04:31:08;14;12;
62846;PMS5003;49477;35.676;139.586;2023-05-29T04:33:37;21;18;
62846;PMS5003;49477;35.676;139.586;2023-05-29T04:36:07;19;17;
62846;PMS5003;49477;35.676;139.586;2023-05-29T04:38:36;15;12;
62846;PMS5003;49477;35.676;139.586;2023-05-29T04:41:06;15;15;
62846;PMS5003;49477;35.676;139.586;2023-05-29T04:43:35;16;15;
62846;PMS5003;49477;35.676;139.586;2023-05-29T04:46:05;17;15;
62846;PMS5003;49477;35.676;139.586;2023-05-29T04:48:34;17;16;
62846;PMS5003;49477;35.676;139.586;2023-05-29T04:51:03;19;17;
62846;PMS5003;49477;35.676;139.586;2023-05-29T04:53:33;18;18;
62846;PMS5003;49477;35.676;139.586;2023-05-29T04:56:02;15;14;
62846;PMS5003;49477;35.676;139.586;2023-05-29T04:58:31;16;15;
62846;PMS5003;49477;35.676;139.586;2023-05-29T05:01:01;19;16;
62846;PMS5003;49477;35.676;139.586;2023-05-29T05:03:30;19;19;
62846;PMS5003;49477;35.676;139.586;2023-05-29T05:06:00;12;12;
62846;PMS5003;49477;35.676;139.586;2023-05-29T05:08:29;18;18;
62846;PMS5003;49477;35.676;139.586;2023-05-29T05:10:59;15;14;
62846;PMS5003;49477;35.676;139.586;2023-05-29T05:13:29;15;13;
62846;PMS5003;49477;35.676;139.586;2023-05-29T05:15:58;13;13;
62846;PMS5003;49477;35.676;139.586;2023-05-29T05:18:27;15;15;
62846;PMS5003;49477;35.676;139.586;2023-05-29T05:20:57;13;12;
62846;PMS5003;49477;35.676;139.586;2023-05-29T05:23:26;12;12;
62846;PMS5003;49477;35.676;139.586;2023-05-29T05:25:56;15;14;
62846;PMS5003;49477;35.676;139.586;2023-05-29T05:28:25;12;12;
62846;PMS5003;49477;35.676;139.586;2023-05-29T05:30:54;15;14;
62846;PMS5003;49477;35.676;139.586;2023-05-29T05:33:23;15;13;
62846;PMS5003;49477;35.676;139.586;2023-05-29T05:35:52;18;15;
62846;PMS5003;49477;35.676;139.586;2023-05-29T05:38:22;15;14;
62846;PMS5003;49477;35.676;139.586;2023-05-29T05:40:51;14;13;
62846;PMS5003;49477;35.676;139.586;2023-05-29T05:43:21;13;13;
62846;PMS5003;49477;35.676;139.586;2023-05-29T05:45:50;13;13;
62846;PMS5003;49477;35.676;139.586;2023-05-29T05:48:20;19;15;
62846;PMS5003;49477;35.676;139.586;2023-05-29T05:50:49;14;14;
62846;PMS5003;49477;35.676;139.586;2023-05-29T05:53:18;16;14;
62846;PMS5003;49477;35.676;139.586;2023-05-29T05:55:48;16;16;
62846;PMS5003;49477;35.676;139.586;2023-05-29T05:58:16;18;16;
62846;PMS5003;49477;35.676;139.586;2023-05-29T06:00:45;20;17;
62846;PMS5003;49477;35.676;139.586;2023-05-29T06:03:14;15;15;
62846;PMS5003;49477;35.676;139.586;2023-05-29T06:05:44;14;14;
62846;PMS5003;49477;35.676;139.586;2023-05-29T06:08:13;15;14;
62846;PMS5003;49477;35.676;139.586;2023-05-29T06:10:43;16;15;
62846;PMS5003;49477;35.676;139.586;2023-05-29T06:13:12;20;14;
62846;PMS5003;49477;35.676;139.586;2023-05-29T06:15:42;14;14;
62846;PMS5003;49477;35.676;139.586;2023-05-29T06:18:11;19;18;
62846;PMS5003;49477;35.676;139.586;2023-05-29T06:20:40;22;17;
62846;PMS5003;49477;35.676;139.586;2023-05-29T06:23:10;15;14;
62846;PMS5003;49477;35.676;139.586;2023-05-29T06:25:39;14;13;
62846;PMS5003;49477;35.676;139.586;2023-05-29T06:28:08;16;16;
62846;PMS5003;49477;35.676;139.586;2023-05-29T06:30:37;19;19;
62846;PMS5003;49477;35.676;139.586;2023-05-29T06:33:08;18;16;
62846;PMS5003;49477;35.676;139.586;2023-05-29T06:35:37;19;18;
62846;PMS5003;49477;35.676;139.586;2023-05-29T06:38:07;14;13;
62846;PMS5003;49477;35.676;139.586;2023-05-29T06:40:36;21;21;
62846;PMS5003;49477;35.676;139.586;2023-05-29T06:43:05;16;15;
62846;PMS5003;49477;35.676;139.586;2023-05-29T06:45:34;16;15;
62846;PMS5003;49477;35.676;139.586;2023-05-29T06:48:04;17;15;
62846;PMS5003;49477;35.676;139.586;2023-05-29T06:50:33;12;12;
62846;PMS5003;49477;35.676;139.586;2023-05-29T06:53:02;15;14;
62846;PMS5003;49477;35.676;139.586;2023-05-29T06:55:32;15;15;
62846;PMS5003;49477;35.676;139.586;2023-05-29T06:58:01;15;15;
62846;PMS5003;49477;35.676;139.586;2023-05-29T07:00:30;16;15;
62846;PMS5003;49477;35.676;139.586;2023-05-29T07:03:00;16;15;
62846;PMS5003;49477;35.676;139.586;2023-05-29T07:05:29;17;12;
62846;PMS5003;49477;35.676;139.586;2023-05-29T07:07:59;17;14;
62846;PMS5003;49477;35.676;139.586;2023-05-29T07:10:28;19;18;
62846;PMS5003;49477;35.676;139.586;2023-05-29T07:12:58;16;13;
62846;PMS5003;49477;35.676;139.586;2023-05-29T07:15:27;14;12;
62846;PMS5003;49477;35.676;139.586;2023-05-29T07:17:56;17;15;
62846;PMS5003;49477;35.676;139.586;2023-05-29T07:20:25;16;14;
62846;PMS5003;49477;35.676;139.586;2023-05-29T07:22:54;18;17;
62846;PMS5003;49477;35.676;139.586;2023-05-29T07:25:23;17;17;
62846;PMS5003;49477;35.676;139.586;2023-05-29T07:27:52;19;18;
62846;PMS5003;49477;35.676;139.586;2023-05-29T07:30:22;17;17;
62846;PMS5003;49477;35.676;139.586;2023-05-29T07:32:51;20;20;
62846;PMS5003;49477;35.676;139.586;2023-05-29T07:35:20;16;16;
62846;PMS5003;49477;35.676;139.586;2023-05-29T07:37:49;17;17;
62846;PMS5003;49477;35.676;139.586;2023-05-29T07:40:18;13;13;
62846;PMS5003;49477;35.676;139.586;2023-05-29T07:42:48;18;16;
62846;PMS5003;49477;35.676;139.586;2023-05-29T07:45:17;13;12;
62846;PMS5003;49477;35.676;139.586;2023-05-29T07:47:46;17;17;
62846;PMS5003;49477;35.676;139.586;2023-05-29T07:50:15;18;17;
62846;PMS5003;49477;35.676;139.586;2023-05-29T07:52:44;21;17;
62846;PMS5003;49477;35.676;139.586;2023-05-29T07:55:13;18;18;
62846;PMS5003;49477;35.676;139.586;2023-05-29T07:57:43;18;16;
62846;PMS5003;49477;35.676;139.586;2023-05-29T08:00:13;15;13;
62846;PMS5003;49477;35.676;139.586;2023-05-29T08:02:42;18;16;
62846;PMS5003;49477;35.676;139.586;2023-05-29T08:05:12;18;14;
62846;PMS5003;49477;35.676;139.586;2023-05-29T08:07:41;20;15;
62846;PMS5003;49477;35.676;139.586;2023-05-29T08:10:10;17;17;
62846;PMS5003;49477;35.676;139.586;2023-05-29T08:12:39;19;18;
62846;PMS5003;49477;35.676;139.586;2023-05-29T08:15:09;16;14;
62846;PMS5003;49477;35.676;139.586;2023-05-29T08:17:39;16;16;
62846;PMS5003;49477;35.676;139.586;2023-05-29T08:20:09;16;14;
62846;PMS5003;49477;35.676;139.586;2023-05-29T08:22:38;19;14;
62846;PMS5003;49477;35.676;139.586;2023-05-29T08:25:08;16;15;
62846;PMS5003;49477;35.676;139.586;2023-05-29T08:27:37;16;16;
62846;PMS5003;49477;35.676;139.586;2023-05-29T08:30:07;15;15;
62846;PMS5003;49477;35.676;139.586;2023-05-29T08:32:38;18;18;
62846;PMS5003;49477;35.676;139.586;2023-05-29T08:35:08;25;23;
62846;PMS5003;49477;35.676;139.586;2023-05-29T08:37:37;27;25;
62846;PMS5003;49477;35.676;139.586;2023-05-29T08:40:07;18;17;
62846;PMS5003;49477;35.676;139.586;2023-05-29T08:42:39;20;18;
62846;PMS5003;49477;35.676;139.586;2023-05-29T08:45:14;27;22;
62846;PMS5003;49477;35.676;139.586;2023-05-29T08:47:46;27;22;
62846;PMS5003;49477;35.676;139.586;2023-05-29T08:50:20;25;22;
62846;PMS5003;49477;35.676;139.586;2023-05-29T08:52:49;25;21;
62846;PMS5003;49477;35.676;139.586;2023-05-29T08:55:18;21;21;
62846;PMS5003;49477;35.676;139.586;2023-05-29T08:57:48;21;18;
62846;PMS5003;49477;35.676;139.586;2023-05-29T09:00:18;23;20;
62846;PMS5003;49477;35.676;139.586;2023-05-29T09:02:48;29;22;
62846;PMS5003;49477;35.676;139.586;2023-05-29T09:05:17;24;22;
62846;PMS5003;49477;35.676;139.586;2023-05-29T09:07:46;22;20;
62846;PMS5003;49477;35.676;139.586;2023-05-29T09:10:15;24;22;
62846;PMS5003;49477;35.676;139.586;2023-05-29T09:12:45;20;20;
62846;PMS5003;49477;35.676;139.586;2023-05-29T09:15:17;23;21;
62846;PMS5003;49477;35.676;139.586;2023-05-29T09:17:51;23;20;
62846;PMS5003;49477;35.676;139.586;2023-05-29T09:20:22;22;19;
62846;PMS5003;49477;35.676;139.586;2023-05-29T09:22:53;21;19;
62846;PMS5003;49477;35.676;139.586;2023-05-29T09:25:24;19;19;
62846;PMS5003;49477;35.676;139.586;2023-05-29T09:27:57;19;19;
62846;PMS5003;49477;35.676;139.586;2023-05-29T09:30:33;22;20;
62846;PMS5003;49477;35.676;139.586;2023-05-29T09:33:04;26;25;
62846;PMS5003;49477;35.676;139.586;2023-05-29T09:35:36;26;24;
62846;PMS5003;49477;35.676;139.586;2023-05-29T09:38:06;21;21;
62846;PMS5003;49477;35.676;139.586;2023-05-29T09:40:37;26;22;
62846;PMS5003;49477;35.676;139.586;2023-05-29T09:43:14;23;22;
62846;PMS5003;49477;35.676;139.586;2023-05-29T09:45:44;22;19;
62846;PMS5003;49477;35.676;139.586;2023-05-29T09:48:14;25;22;
62846;PMS5003;49477;35.676;139.586;2023-05-29T09:50:45;23;21;
62846;PMS5003;49477;35.676;139.586;2023-05-29T09:53:17;23;21;
62846;PMS5003;49477;35.676;139.586;2023-05-29T09:55:47;26;24;
62846;PMS5003;49477;35.676;139.586;2023-05-29T09:58:17;23;21;
62846;PMS5003;49477;35.676;139.586;2023-05-29T10:00:48;22;21;
62846;PMS5003;49477;35.676;139.586;2023-05-29T10:03:18;26;21;
62846;PMS5003;49477;35.676;139.586;2023-05-29T10:05:49;22;19;
62846;PMS5003;49477;35.676;139.586;2023-05-29T10:08:19;27;24;
62846;PMS5003;49477;35.676;139.586;2023-05-29T10:10:52;27;24;
62846;PMS5003;49477;35.676;139.586;2023-05-29T10:13:27;28;24;
62846;PMS5003;49477;35.676;139.586;2023-05-29T10:16:00;26;23;
62846;PMS5003;49477;35.676;139.586;2023-05-29T10:18:35;27;22;
62846;PMS5003;49477;35.676;139.586;2023-05-29T10:21:07;25;24;
62846;PMS5003;49477;35.676;139.586;2023-05-29T10:23:40;23;22;
62846;PMS5003;49477;35.676;139.586;2023-05-29T10:26:14;20;19;
62846;PMS5003;49477;35.676;139.586;2023-05-29T10:28:48;33;25;
62846;PMS5003;49477;35.676;139.586;2023-05-29T10:31:24;29;29;
62846;PMS5003;49477;35.676;139.586;2023-05-29T10:34:02;25;25;
62846;PMS5003;49477;35.676;139.586;2023-05-29T10:36:42;31;27;
62846;PMS5003;49477;35.676;139.586;2023-05-29T10:39:16;30;24;
62846;PMS5003;49477;35.676;139.586;2023-05-29T10:41:47;28;25;
62846;PMS5003;49477;35.676;139.586;2023-05-29T10:44:49;27;25;
62846;PMS5003;49477;35.676;139.586;2023-05-29T10:47:23;20;20;
62846;PMS5003;49477;35.676;139.586;2023-05-29T10:49:52;19;15;
62846;PMS5003;49477;35.676;139.586;2023-05-29T10:52:31;17;17;
62846;PMS5003;49477;35.676;139.586;2023-05-29T10:55:00;22;18;
62846;PMS5003;49477;35.676;139.586;2023-05-29T10:57:30;17;17;
62846;PMS5003;49477;35.676;139.586;2023-05-29T11:00:03;26;23;
62846;PMS5003;49477;35.676;139.586;2023-05-29T11:02:36;23;20;
62846;PMS5003;49477;35.676;139.586;2023-05-29T11:05:25;19;17;
62846;PMS5003;49477;35.676;139.586;2023-05-29T11:07:57;23;19;
62846;PMS5003;49477;35.676;139.586;2023-05-29T11:10:42;21;18;
62846;PMS5003;49477;35.676;139.586;2023-05-29T11:13:24;18;17;
62846;PMS5003;49477;35.676;139.586;2023-05-29T11:16:06;24;19;
62846;PMS5003;49477;35.676;139.586;2023-05-29T11:18:40;24;20;
62846;PMS5003;49477;35.676;139.586;2023-05-29T11:21:15;20;20;
62846;PMS5003;49477;35.676;139.586;2023-05-29T11:23:51;24;19;
62846;PMS5003;49477;35.676;139.586;2023-05-29T11:26:22;17;17;
62846;PMS5003;49477;35.676;139.586;2023-05-29T11:28:53;19;17;
62846;PMS5003;49477;35.676;139.586;2023-05-29T11:31:27;22;17;
62846;PMS5003;49477;35.676;139.586;2023-05-29T11:34:00;20;20;
62846;PMS5003;49477;35.676;139.586;2023-05-29T11:36:31;23;22;
62846;PMS5003;49477;35.676;139.586;2023-05-29T11:39:01;23;19;
62846;PMS5003;49477;35.676;139.586;2023-05-29T11:41:30;19;17;
62846;PMS5003;49477;35.676;139.586;2023-05-29T11:44:00;20;18;
62846;PMS5003;49477;35.676;139.586;2023-05-29T11:46:30;18;18;
62846;PMS5003;49477;35.676;139.586;2023-05-29T11:49:00;26;23;
62846;PMS5003;49477;35.676;139.586;2023-05-29T11:51:30;17;17;
62846;PMS5003;49477;35.676;139.586;2023-05-29T11:54:00;23;18;
62846;PMS5003;49477;35.676;139.586;2023-05-29T11:56:29;19;19;
62846;PMS5003;49477;35.676;139.586;2023-05-29T11:58:59;22;20;
62846;PMS5003;49477;35.676;139.586;2023-05-29T12:01:29;27;25;
62846;PMS5003;49477;35.676;139.586;2023-05-29T12:04:02;20;18;
62846;PMS5003;49477;35.676;139.586;2023-05-29T12:06:43;22;21;
62846;PMS5003;49477;35.676;139.586;2023-05-29T12:09:23;21;21;
62846;PMS5003;49477;35.676;139.586;2023-05-29T12:11:54;34;28;
62846;PMS5003;49477;35.676;139.586;2023-05-29T12:14:29;30;29;
62846;PMS5003;49477;35.676;139.586;2023-05-29T12:16:59;18;18;
62846;PMS5003;49477;35.676;139.586;2023-05-29T12:19:28;28;24;
62846;PMS5003;49477;35.676;139.586;2023-05-29T12:21:59;20;18;
62846;PMS5003;49477;35.676;139.586;2023-05-29T12:24:28;23;23;
62846;PMS5003;49477;35.676;139.586;2023-05-29T12:26:58;31;28;
62846;PMS5003;49477;35.676;139.586;2023-05-29T12:29:30;21;21;
62846;PMS5003;49477;35.676;139.586;2023-05-29T12:32:01;24;22;
62846;PMS5003;49477;35.676;139.586;2023-05-29T12:34:34;35;30;
62846;PMS5003;49477;35.676;139.586;2023-05-29T12:37:06;30;28;
62846;PMS5003;49477;35.676;139.586;2023-05-29T12:39:36;31;26;
62846;PMS5003;49477;35.676;139.586;2023-05-29T12:42:07;32;31;
62846;PMS5003;49477;35.676;139.586;2023-05-29T12:44:37;35;28;
62846;PMS5003;49477;35.676;139.586;2023-05-29T12:47:07;31;29;
62846;PMS5003;49477;35.676;139.586;2023-05-29T12:49:36;38;34;
62846;PMS5003;49477;35.676;139.586;2023-05-29T12:52:06;36;32;
62846;PMS5003;49477;35.676;139.586;2023-05-29T12:54:36;24;24;
62846;PMS5003;49477;35.676;139.586;2023-05-29T12:57:07;35;30;
62846;PMS5003;49477;35.676;139.586;2023-05-29T12:59:37;32;27;
62846;PMS5003;49477;35.676;139.586;2023-05-29T13:02:07;36;33;
62846;PMS5003;49477;35.676;139.586;2023-05-29T13:04:37;36;32;
62846;PMS5003;49477;35.676;139.586;2023-05-29T13:07:07;32;29;
62846;PMS5003;49477;35.676;139.586;2023-05-29T13:09:36;33;32;
62846;PMS5003;49477;35.676;139.586;2023-05-29T13:12:05;38;31;
62846;PMS5003;49477;35.676;139.586;2023-05-29T13:14:36;33;30;
62846;PMS5003;49477;35.676;139.586;2023-05-29T13:17:06;30;28;
62846;PMS5003;49477;35.676;139.586;2023-05-29T13:19:36;34;31;
62846;PMS5003;49477;35.676;139.586;2023-05-29T13:22:05;32;29;
62846;PMS5003;49477;35.676;139.586;2023-05-29T13:24:35;25;22;
62846;PMS5003;49477;35.676;139.586;2023-05-29T13:27:04;26;25;
62846;PMS5003;49477;35.676;139.586;2023-05-29T13:29:40;29;28;
62846;PMS5003;49477;35.676;139.586;2023-05-29T13:32:15;29;23;
62846;PMS5003;49477;35.676;139.586;2023-05-29T13:34:44;29;24;
62846;PMS5003;49477;35.676;139.586;2023-05-29T13:37:13;24;20;
62846;PMS5003;49477;35.676;139.586;2023-05-29T13:39:43;26;22;
62846;PMS5003;49477;35.676;139.586;2023-05-29T13:42:11;33;26;
62846;PMS5003;49477;35.676;139.586;2023-05-29T13:44:41;24;23;
62846;PMS5003;49477;35.676;139.586;2023-05-29T13:47:10;25;22;
62846;PMS5003;49477;35.676;139.586;2023-05-29T13:49:40;23;20;
62846;PMS5003;49477;35.676;139.586;2023-05-29T13:52:09;25;23;
62846;PMS5003;49477;35.676;139.586;2023-05-29T13:54:39;24;20;
62846;PMS5003;49477;35.676;139.586;2023-05-29T13:57:08;24;23;
62846;PMS5003;49477;35.676;139.586;2023-05-29T13:59:37;28;24;
62846;PMS5003;49477;35.676;139.586;2023-05-29T14:02:06;23;21;
62846;PMS5003;49477;35.676;139.586;2023-05-29T14:04:35;26;23;
62846;PMS5003;49477;35.676;139.586;2023-05-29T14:07:07;19;19;
62846;PMS5003;49477;35.676;139.586;2023-05-29T14:09:37;19;19;
62846;PMS5003;49477;35.676;139.586;2023-05-29T14:12:07;18;16;
62846;PMS5003;49477;35.676;139.586;2023-05-29T14:14:36;19;19;
62846;PMS5003;49477;35.676;139.586;2023-05-29T14:17:07;24;20;
62846;PMS5003;49477;35.676;139.586;2023-05-29T14:19:37;19;17;
62846;PMS5003;49477;35.676;139.586;2023-05-29T14:22:07;20;19;
62846;PMS5003;49477;35.676;139.586;2023-05-29T14:24:36;18;15;
62846;PMS5003;49477;35.676;139.586;2023-05-29T14:27:06;17;16;
62846;PMS5003;49477;35.676;139.586;2023-05-29T14:29:35;17;17;
62846;PMS5003;49477;35.676;139.586;2023-05-29T14:32:04;21;17;
62846;PMS5003;49477;35.676;139.586;2023-05-29T14:34:34;20;17;
62846;PMS5003;49477;35.676;139.586;2023-05-29T14:37:04;22;19;
62846;PMS5003;49477;35.676;139.586;2023-05-29T14:39:33;22;18;
62846;PMS5003;49477;35.676;139.586;2023-05-29T14:42:03;23;19;
62846;PMS5003;49477;35.676;139.586;2023-05-29T14:44:32;19;16;
62846;PMS5003;49477;35.676;139.586;2023-05-29T14:47:02;19;19;
62846;PMS5003;49477;35.676;139.586;2023-05-29T14:49:31;20;19;
62846;PMS5003;49477;35.676;139.586;2023-05-29T14:52:00;16;15;
62846;PMS5003;49477;35.676;139.586;2023-05-29T14:54:30;20;16;
62846;PMS5003;49477;35.676;139.586;2023-05-29T14:56:58;22;18;
62846;PMS5003;49477;35.676;139.586;2023-05-29T14:59:27;16;16;
62846;PMS5003;49477;35.676;139.586;2023-05-29T15:01:57;21;18;
62846;PMS5003;49477;35.676;139.586;2023-05-29T15:04:26;20;17;
62846;PMS5003;49477;35.676;139.586;2023-05-29T15:06:56;18;15;
62846;PMS5003;49477;35.676;139.586;2023-05-29T15:09:25;15;13;
62846;PMS5003;49477;35.676;139.586;2023-05-29T15:11:54;17;15;
62846;PMS5003;49477;35.676;139.586;2023-05-29T15:14:24;14;11;
62846;PMS5003;49477;35.676;139.586;2023-05-29T15:16:53;14;14;
62846;PMS5003;49477;35.676;139.586;2023-05-29T15:19:23;21;17;
62846;PMS5003;49477;35.676;139.586;2023-05-29T15:21:52;17;16;
62846;PMS5003;49477;35.676;139.586;2023-05-29T15:24:22;17;14;
62846;PMS5003;49477;35.676;139.586;2023-05-29T15:26:51;15;14;
62846;PMS5003;49477;35.676;139.586;2023-05-29T15:29:20;18;13;
62846;PMS5003;49477;35.676;139.586;2023-05-29T15:31:50;19;18;
62846;PMS5003;49477;35.676;139.586;2023-05-29T15:34:19;14;14;
62846;PMS5003;49477;35.676;139.586;2023-05-29T15:36:48;13;13;
62846;PMS5003;49477;35.676;139.586;2023-05-29T15:39:18;11;11;
62846;PMS5003;49477;35.676;139.586;2023-05-29T15:41:47;16;16;
62846;PMS5003;49477;35.676;139.586;2023-05-29T15:44:17;13;12;
62846;PMS5003;49477;35.676;139.586;2023-05-29T15:46:46;15;15;
62846;PMS5003;49477;35.676;139.586;2023-05-29T15:49:16;15;13;
62846;PMS5003;49477;35.676;139.586;2023-05-29T15:51:45;14;13;
62846;PMS5003;49477;35.676;139.586;2023-05-29T15:54:14;13;13;
62846;PMS5003;49477;35.676;139.586;2023-05-29T15:56:43;12;11;
62846;PMS5003;49477;35.676;139.586;2023-05-29T15:59:13;16;15;
62846;PMS5003;49477;35.676;139.586;2023-05-29T16:01:42;15;12;
62846;PMS5003;49477;35.676;139.586;2023-05-29T16:04:11;15;15;
62846;PMS5003;49477;35.676;139.586;2023-05-29T16:06:41;11;11;